Hlavní strana
METAR-TAF:

METAR-TAF

Letiště :

Lonesome Pine Airport

Wise, Virginie, Spojené státy americké

zeměpisná šířka: 36-59N, zeměpisná délka: 082-32W, výška: 817 m

Aktuální stav počasí

Zpráva byla vytvořena před 20 minutami, v 17:35 UTC
Severní vítr 4 kt
Teplota 28°C
Vlhkost vzduchu 37%
Tlak 1020 hPa
Viditelnost: 16.1 km
Jasno

METAR: KLNP 031735Z AUTO 35004KT 10SM CLR 28/12 A3012 RMK AO2

Čas: 13:55 (17:55 UTC)


TAF: chybějící

Stav a předpovědi počasí z více než 4 000 letišť (zprávy METAR a TAF).

Červené a žluté tečky na mapě představují dostupné meteorologické stanice.

Když kurzor umístíte na tečku, zobrazí se název stanice.

Pak kliknutím zobrazíte stav a předpověď počasí.

Chcete-li změnit mapu, kliknutím na zelené tlačítko se znaménkem +mapu přiblížíte, kliknutím na zelené tlačítko se znaménkem – mapu oddálíte a kliknutím na zelené šipky přejdete na sousední mapy.


METAR-TAF: